createdAt,value
2022-10-02T00:01:33.587Z,11.22
2022-10-02T00:04:03.555Z,11.23
2022-10-02T00:06:41.375Z,11.17
2022-10-02T00:09:16.105Z,11.15
2022-10-02T00:11:47.250Z,11.09
2022-10-02T00:14:18.890Z,11.16
2022-10-02T00:16:53.566Z,11.28
2022-10-02T00:19:21.710Z,11.18
2022-10-02T00:22:01.559Z,11.16
2022-10-02T00:24:46.524Z,11.17
2022-10-02T00:27:41.538Z,11.20
2022-10-02T00:30:14.732Z,11.17
2022-10-02T00:33:03.581Z,11.16
2022-10-02T00:36:01.454Z,11.14
2022-10-02T00:38:39.765Z,11.14
2022-10-02T00:41:48.946Z,11.15
2022-10-02T00:44:45.932Z,11.18
2022-10-02T00:48:04.196Z,11.16
2022-10-02T00:51:03.661Z,11.16
2022-10-02T00:53:46.931Z,11.11
2022-10-02T00:56:23.518Z,11.26
2022-10-02T01:19:41.540Z,11.17
2022-10-02T01:22:36.912Z,11.10
2022-10-02T01:25:06.828Z,11.11
2022-10-02T01:27:39.209Z,11.19
2022-10-02T01:30:15.641Z,11.13
2022-10-02T01:33:05.796Z,11.08
2022-10-02T01:35:36.909Z,11.05
2022-10-02T01:38:08.902Z,11.10
2022-10-02T01:40:38.692Z,11.14
2022-10-02T01:43:14.747Z,11.06
2022-10-02T01:46:09.082Z,11.21
2022-10-02T01:48:46.645Z,11.12
2022-10-02T01:51:40.760Z,11.22
2022-10-02T01:54:56.246Z,11.22
2022-10-02T01:57:48.066Z,11.23
2022-10-02T02:00:26.849Z,11.33
2022-10-02T02:03:03.211Z,11.30
2022-10-02T02:06:03.128Z,11.17
2022-10-02T02:08:42.778Z,11.20
2022-10-02T02:11:18.281Z,11.26
2022-10-02T02:14:12.045Z,11.22
2022-10-02T02:16:42.561Z,11.27
2022-10-02T02:19:45.415Z,11.20
2022-10-02T02:22:24.511Z,11.21
2022-10-02T02:25:08.675Z,11.20
2022-10-02T02:27:40.202Z,11.28
2022-10-02T02:30:13.198Z,11.23
2022-10-02T02:32:56.916Z,11.35
2022-10-02T02:35:46.907Z,11.24
2022-10-02T02:38:26.559Z,11.20
2022-10-02T02:40:59.690Z,11.21
2022-10-02T02:43:35.771Z,11.17
2022-10-02T02:46:11.433Z,11.15
2022-10-02T02:48:52.288Z,11.06
2022-10-02T02:51:26.918Z,11.06
2022-10-02T02:54:26.377Z,10.98
2022-10-02T02:56:56.796Z,10.94
2022-10-02T02:59:31.426Z,11.09
2022-10-02T03:01:59.754Z,11.08
2022-10-02T03:04:27.714Z,11.05
2022-10-02T03:07:01.535Z,11.03
2022-10-02T03:09:30.615Z,11.06
2022-10-02T03:12:05.102Z,10.89
2022-10-02T03:14:41.997Z,10.79
2022-10-02T03:17:42.734Z,10.61
2022-10-02T03:20:25.634Z,10.49
2022-10-02T03:23:18.222Z,10.36
2022-10-02T03:26:24.908Z,10.35
2022-10-02T03:28:59.127Z,10.42
2022-10-02T03:31:32.020Z,10.43
2022-10-02T03:34:02.465Z,10.28
2022-10-02T03:36:30.919Z,10.36
2022-10-02T03:41:50.887Z,10.45
2022-10-02T03:44:18.639Z,10.57
2022-10-02T03:46:46.568Z,10.66
2022-10-02T03:49:14.488Z,10.70
2022-10-02T03:51:42.265Z,10.82
2022-10-02T03:54:20.100Z,10.79
2022-10-02T03:57:03.276Z,10.87
2022-10-02T03:59:37.158Z,10.94
2022-10-02T04:02:12.576Z,10.99
2022-10-02T04:04:57.673Z,10.91
2022-10-02T04:07:37.562Z,10.97
2022-10-02T04:10:14.824Z,11.00
2022-10-02T04:12:52.129Z,11.03
2022-10-02T04:15:23.681Z,11.03
2022-10-02T04:18:03.850Z,11.11
2022-10-02T04:21:06.014Z,11.23
2022-10-02T04:23:35.921Z,11.29
2022-10-02T04:26:21.966Z,11.17
2022-10-02T04:29:01.449Z,11.14
2022-10-02T04:31:29.563Z,11.31
2022-10-02T04:34:05.309Z,11.33
2022-10-02T04:37:39.301Z,11.23
2022-10-02T04:40:27.881Z,11.28
2022-10-02T04:43:25.621Z,11.27
2022-10-02T04:46:39.784Z,11.35
2022-10-02T04:49:26.148Z,11.46
2022-10-02T04:52:23.691Z,11.46
2022-10-02T04:55:12.508Z,11.39
2022-10-02T04:58:17.346Z,11.44
2022-10-02T05:01:23.635Z,11.48
2022-10-02T05:04:00.689Z,11.40
2022-10-02T05:06:40.087Z,11.46
2022-10-02T05:09:28.943Z,11.49
2022-10-02T05:12:38.440Z,11.52
2022-10-02T05:15:15.296Z,11.52
2022-10-02T05:18:07.712Z,11.52
2022-10-02T05:20:38.483Z,11.52
2022-10-02T05:23:30.481Z,11.50
2022-10-02T05:26:31.629Z,11.46
2022-10-02T05:29:07.672Z,11.56
2022-10-02T05:31:41.480Z,11.62
2022-10-02T05:34:48.870Z,11.68
2022-10-02T05:37:35.035Z,11.73
2022-10-02T05:40:19.600Z,11.74
2022-10-02T05:43:13.014Z,11.77
2022-10-02T05:45:52.912Z,11.83
2022-10-02T05:48:41.001Z,11.88
2022-10-02T05:51:29.509Z,11.96
2022-10-02T05:54:12.324Z,12.06
2022-10-02T05:56:48.184Z,12.02
2022-10-02T05:59:27.653Z,12.18
2022-10-02T06:02:02.474Z,12.12
2022-10-02T06:04:38.369Z,12.12
2022-10-02T06:07:14.350Z,12.23
2022-10-02T06:09:53.348Z,12.14
2022-10-02T06:12:42.692Z,12.27
2022-10-02T06:15:30.033Z,12.28
2022-10-02T06:18:05.275Z,12.37
2022-10-02T06:20:41.822Z,12.24
2022-10-02T06:23:32.804Z,12.27
2022-10-02T06:26:16.518Z,12.38
2022-10-02T06:29:13.765Z,12.44
2022-10-02T06:32:07.317Z,12.28
2022-10-02T06:34:35.145Z,12.32
2022-10-02T06:37:21.258Z,12.41
2022-10-02T06:40:15.645Z,12.40
2022-10-02T06:43:18.257Z,12.51
2022-10-02T06:46:04.960Z,12.56
2022-10-02T06:49:12.116Z,12.43
2022-10-02T06:51:51.916Z,12.37
2022-10-02T06:54:32.263Z,12.45
2022-10-02T06:57:03.031Z,12.43
2022-10-02T07:00:03.336Z,12.50
2022-10-02T07:02:59.705Z,12.71
2022-10-02T07:05:33.502Z,12.86
2022-10-02T07:08:28.092Z,12.97
2022-10-02T07:11:21.226Z,13.27
2022-10-02T07:14:08.235Z,13.09
2022-10-02T07:16:58.671Z,13.07
2022-10-02T07:19:35.390Z,13.04
2022-10-02T07:22:45.009Z,13.11
2022-10-02T07:25:50.626Z,12.92
2022-10-02T07:28:37.599Z,13.03
2022-10-02T07:31:32.909Z,13.13
2022-10-02T07:34:35.136Z,13.24
2022-10-02T07:37:17.454Z,13.07
2022-10-02T07:40:13.148Z,13.19
2022-10-02T07:42:54.071Z,13.34
2022-10-02T07:45:39.310Z,13.30
2022-10-02T07:48:12.033Z,13.45
2022-10-02T07:51:28.081Z,13.47
2022-10-02T07:54:09.111Z,13.59
2022-10-02T07:56:38.140Z,13.92
2022-10-02T07:59:15.905Z,14.69
2022-10-02T08:01:46.567Z,16.56
2022-10-02T08:04:34.617Z,18.05
2022-10-02T08:07:06.802Z,18.14
2022-10-02T08:09:52.243Z,17.14
2022-10-02T08:12:37.967Z,16.60
2022-10-02T08:15:07.091Z,16.08
2022-10-02T08:17:49.934Z,15.58
2022-10-02T08:20:29.469Z,15.39
2022-10-02T08:23:00.578Z,15.22
2022-10-02T08:25:49.581Z,14.83
2022-10-02T08:28:40.026Z,14.54
2022-10-02T08:31:14.837Z,14.52
2022-10-02T08:33:43.332Z,14.43
2022-10-02T08:36:35.195Z,14.22
2022-10-02T08:39:28.197Z,14.19
2022-10-02T08:42:11.555Z,14.10
2022-10-02T08:44:49.085Z,13.82
2022-10-02T08:47:22.644Z,13.82
2022-10-02T08:50:30.217Z,13.76
2022-10-02T08:53:09.955Z,13.86
2022-10-02T08:55:58.384Z,13.96
2022-10-02T08:59:19.136Z,14.01
2022-10-02T09:01:47.155Z,14.01
2022-10-02T09:05:00.945Z,14.15
2022-10-02T09:07:41.897Z,14.30
2022-10-02T09:10:46.081Z,14.49
2022-10-02T09:13:29.449Z,14.77
2022-10-02T09:16:11.053Z,14.88
2022-10-02T09:18:56.460Z,15.04
2022-10-02T09:21:34.718Z,15.18
2022-10-02T09:24:40.382Z,15.71
2022-10-02T09:27:54.114Z,15.69
2022-10-02T09:30:33.876Z,15.80
2022-10-02T09:33:27.255Z,16.24
2022-10-02T09:36:13.143Z,16.67
2022-10-02T09:38:52.153Z,16.92
2022-10-02T09:41:38.601Z,16.63
2022-10-02T09:44:40.413Z,16.40
2022-10-02T09:47:47.299Z,15.83
2022-10-02T09:50:50.074Z,15.74
2022-10-02T09:53:33.125Z,15.95
2022-10-02T09:56:20.957Z,16.20
2022-10-02T09:59:26.311Z,16.54
2022-10-02T10:01:57.006Z,16.59
2022-10-02T10:05:01.317Z,17.01
2022-10-02T10:08:02.741Z,18.34
2022-10-02T10:11:02.157Z,19.00
2022-10-02T10:14:20.059Z,18.75
2022-10-02T10:17:13.503Z,18.28
2022-10-02T10:19:53.295Z,17.76
2022-10-02T10:22:40.091Z,17.40
2022-10-02T10:25:31.561Z,17.43
2022-10-02T10:28:25.957Z,17.21
2022-10-02T10:31:11.341Z,16.86
2022-10-02T10:34:04.139Z,17.18
2022-10-02T10:36:56.828Z,17.28
2022-10-02T10:39:55.522Z,17.90
2022-10-02T10:43:06.909Z,17.91
2022-10-02T10:45:54.158Z,17.42
2022-10-02T10:48:49.914Z,16.77
2022-10-02T10:52:03.965Z,16.34
2022-10-02T10:54:55.889Z,15.75
2022-10-02T10:58:02.734Z,15.32
2022-10-02T11:00:51.472Z,15.41
2022-10-02T11:03:49.832Z,15.51
2022-10-02T11:06:38.954Z,15.40
2022-10-02T11:09:26.964Z,15.73
2022-10-02T11:12:21.749Z,15.96
2022-10-02T11:15:27.210Z,15.87
2022-10-02T11:18:09.414Z,15.79
2022-10-02T11:21:18.739Z,15.45
2022-10-02T11:24:50.971Z,15.02
2022-10-02T11:28:03.110Z,14.86
2022-10-02T11:30:47.052Z,14.76
2022-10-02T11:33:38.327Z,14.87
2022-10-02T11:36:21.094Z,15.26
2022-10-02T11:39:21.762Z,15.70
2022-10-02T11:42:26.328Z,15.85
2022-10-02T11:45:18.660Z,16.07
2022-10-02T11:48:25.984Z,16.24
2022-10-02T11:51:12.461Z,16.40
2022-10-02T11:54:04.309Z,16.24
2022-10-02T11:57:01.974Z,16.26
2022-10-02T11:59:47.990Z,16.45
2022-10-02T12:02:42.025Z,16.60
2022-10-02T12:05:53.449Z,16.66
2022-10-02T12:09:00.616Z,17.05
2022-10-02T12:11:49.482Z,17.30
2022-10-02T12:14:38.570Z,17.15
2022-10-02T12:17:53.425Z,17.11
2022-10-02T12:20:46.962Z,17.03
2022-10-02T12:24:13.969Z,16.83
2022-10-02T12:26:59.075Z,17.14
2022-10-02T12:29:41.117Z,17.09
2022-10-02T12:32:28.104Z,16.90
2022-10-02T12:35:41.152Z,16.55
2022-10-02T12:38:35.193Z,16.33
2022-10-02T12:41:52.937Z,16.18
2022-10-02T12:44:24.714Z,16.01
2022-10-02T12:47:26.360Z,15.99
2022-10-02T12:50:21.983Z,15.96
2022-10-02T12:52:53.116Z,16.16
2022-10-02T12:55:39.699Z,15.99
2022-10-02T12:58:23.686Z,15.80
2022-10-02T13:01:09.362Z,15.53
2022-10-02T13:04:05.820Z,15.51
2022-10-02T13:06:46.661Z,15.52
2022-10-02T13:09:28.102Z,15.37
2022-10-02T13:12:35.065Z,15.37
2022-10-02T13:15:23.053Z,15.42
2022-10-02T13:17:58.808Z,15.40
2022-10-02T13:20:39.024Z,15.31
2022-10-02T13:23:32.084Z,15.29
2022-10-02T13:26:19.290Z,15.38
2022-10-02T13:28:54.315Z,15.42
2022-10-02T13:31:54.030Z,15.56
2022-10-02T13:34:39.300Z,15.80
2022-10-02T13:37:33.446Z,15.74
2022-10-02T13:40:40.062Z,15.82
2022-10-02T13:43:36.940Z,15.84
2022-10-02T13:46:32.546Z,15.64
2022-10-02T13:49:25.351Z,15.67
2022-10-02T13:52:13.771Z,15.58
2022-10-02T13:55:20.151Z,15.51
2022-10-02T13:58:42.368Z,15.53
2022-10-02T14:01:31.230Z,15.40
2022-10-02T14:04:17.241Z,15.35
2022-10-02T14:07:41.124Z,15.53
2022-10-02T14:10:28.381Z,15.51
2022-10-02T14:13:05.920Z,15.65
2022-10-02T14:15:45.859Z,15.81
2022-10-02T14:18:39.486Z,15.67
2022-10-02T14:21:31.829Z,15.58
2022-10-02T14:24:44.012Z,15.58
2022-10-02T14:27:43.290Z,15.73
2022-10-02T14:31:00.579Z,15.59
2022-10-02T14:33:40.131Z,15.54
2022-10-02T14:36:20.954Z,15.56
2022-10-02T14:39:12.361Z,15.33
2022-10-02T14:41:40.208Z,15.12
2022-10-02T14:44:28.567Z,15.14
2022-10-02T14:47:13.307Z,14.97
2022-10-02T14:50:23.396Z,14.92
2022-10-02T14:52:59.854Z,15.02
2022-10-02T14:55:45.010Z,15.02
2022-10-02T14:58:34.327Z,15.12
2022-10-02T15:01:21.340Z,15.09
2022-10-02T15:04:11.768Z,15.32
2022-10-02T15:07:04.019Z,15.24
2022-10-02T15:09:56.068Z,15.08
2022-10-02T15:12:35.914Z,15.10
2022-10-02T15:15:08.476Z,15.05
2022-10-02T15:17:57.390Z,14.95
2022-10-02T15:20:25.123Z,14.91
2022-10-02T15:23:00.744Z,14.73
2022-10-02T15:25:55.413Z,14.44
2022-10-02T15:28:36.806Z,14.21
2022-10-02T15:31:46.910Z,14.11
2022-10-02T15:34:27.137Z,13.79
2022-10-02T15:37:03.341Z,13.61
2022-10-02T15:40:09.405Z,13.48
2022-10-02T15:42:49.505Z,13.31
2022-10-02T15:45:40.666Z,13.18
2022-10-02T15:48:47.919Z,13.02
2022-10-02T15:51:55.552Z,12.79
2022-10-02T15:54:25.832Z,12.74
2022-10-02T15:57:12.445Z,12.54
2022-10-02T15:59:46.241Z,12.45
2022-10-02T16:02:32.991Z,12.39
2022-10-02T16:05:33.937Z,12.25
2022-10-02T16:08:39.250Z,12.19
2022-10-02T16:11:27.025Z,12.12
2022-10-02T16:14:33.039Z,12.16
2022-10-02T16:17:24.188Z,11.89
2022-10-02T16:20:14.013Z,11.80
2022-10-02T16:23:10.976Z,11.82
2022-10-02T16:26:17.425Z,11.65
2022-10-02T16:29:14.404Z,11.54
2022-10-02T16:32:06.297Z,11.49
2022-10-02T16:35:20.045Z,11.34
2022-10-02T16:38:02.133Z,11.25
2022-10-02T16:40:44.154Z,11.19
2022-10-02T16:43:20.978Z,11.11
2022-10-02T16:46:10.205Z,11.09
2022-10-02T16:49:08.126Z,10.98
2022-10-02T16:52:10.570Z,10.89
2022-10-02T16:55:08.146Z,10.80
2022-10-02T16:57:41.662Z,10.71
2022-10-02T17:00:24.019Z,10.65
2022-10-02T17:03:11.492Z,10.57
2022-10-02T17:05:53.233Z,10.45
2022-10-02T17:08:41.176Z,10.42
2022-10-02T17:11:09.104Z,10.47
2022-10-02T17:14:03.613Z,10.28
2022-10-02T17:16:40.698Z,10.20
2022-10-02T17:19:44.290Z,10.17
2022-10-02T17:22:44.814Z,10.09
2022-10-02T17:25:51.018Z,10.16
2022-10-02T17:28:19.396Z,10.05
2022-10-02T17:30:59.279Z,9.94
2022-10-02T17:33:40.116Z,9.96
2022-10-02T17:36:15.433Z,9.87
2022-10-02T17:39:11.066Z,9.86
2022-10-02T17:41:39.121Z,9.78
2022-10-02T17:44:18.456Z,9.73
2022-10-02T17:47:13.133Z,9.68
2022-10-02T17:49:52.527Z,9.74
2022-10-02T17:52:57.107Z,9.72
2022-10-02T17:55:49.248Z,9.67
2022-10-02T17:58:44.974Z,9.71
2022-10-02T18:01:19.930Z,9.69
2022-10-02T18:04:12.576Z,9.60
2022-10-02T18:06:58.813Z,9.55
2022-10-02T18:10:00.850Z,9.46
2022-10-02T18:12:34.827Z,9.42
2022-10-02T18:15:05.267Z,9.40
2022-10-02T18:17:54.322Z,9.41
2022-10-02T18:20:34.521Z,9.38
2022-10-02T18:23:11.556Z,9.45
2022-10-02T18:26:16.771Z,9.36
2022-10-02T18:29:05.961Z,9.32
2022-10-02T18:31:54.507Z,9.33
2022-10-02T18:34:32.107Z,9.26
2022-10-02T18:37:02.969Z,9.25
2022-10-02T18:40:06.952Z,9.29
2022-10-02T18:43:02.320Z,9.28
2022-10-02T18:45:44.072Z,9.30
2022-10-02T18:48:38.245Z,9.37
2022-10-02T18:51:31.879Z,9.33
2022-10-02T18:54:08.005Z,9.17
2022-10-02T18:57:07.502Z,9.27
2022-10-02T19:00:23.774Z,9.16
2022-10-02T19:03:13.785Z,9.18
2022-10-02T19:06:13.465Z,9.17
2022-10-02T19:09:08.672Z,9.19
2022-10-02T19:11:45.758Z,9.18
2022-10-02T19:14:33.198Z,9.20
2022-10-02T19:17:02.484Z,9.24
2022-10-02T19:19:30.655Z,9.30
2022-10-02T19:22:02.241Z,9.40
2022-10-02T19:24:37.424Z,9.48
2022-10-02T19:27:10.017Z,9.52
2022-10-02T19:29:48.658Z,9.60
2022-10-02T19:32:18.525Z,9.72
2022-10-02T19:34:51.808Z,9.78
2022-10-02T19:37:23.090Z,9.74
2022-10-02T19:39:55.180Z,9.76
2022-10-02T19:42:38.661Z,9.78
2022-10-02T19:45:22.792Z,9.85
2022-10-02T19:47:58.431Z,9.93
2022-10-02T19:50:38.244Z,10.20
2022-10-02T19:53:23.739Z,10.24
2022-10-02T19:56:17.595Z,10.49
2022-10-02T19:58:59.642Z,10.69
2022-10-02T20:01:33.182Z,10.87
2022-10-02T20:04:02.722Z,11.07
2022-10-02T20:06:35.162Z,11.24
2022-10-02T20:09:16.937Z,11.40
2022-10-02T20:11:52.190Z,11.29
2022-10-02T20:14:39.564Z,11.33
2022-10-02T20:17:09.087Z,11.30
2022-10-02T20:20:12.404Z,11.26
2022-10-02T20:22:55.473Z,11.32
2022-10-02T20:25:29.059Z,11.18
2022-10-02T20:28:15.831Z,11.18
2022-10-02T20:30:51.702Z,11.09
2022-10-02T20:33:36.829Z,10.99
2022-10-02T20:36:19.449Z,10.96
2022-10-02T20:39:04.319Z,10.83
2022-10-02T20:41:57.614Z,10.83
2022-10-02T20:44:28.417Z,10.87
2022-10-02T20:47:14.469Z,10.78
2022-10-02T20:49:52.760Z,10.82
2022-10-02T20:52:57.839Z,10.73
2022-10-02T20:55:43.444Z,10.69
2022-10-02T20:58:32.858Z,10.68
2022-10-02T21:01:03.536Z,10.65
2022-10-02T21:03:40.587Z,10.56
2022-10-02T21:06:46.710Z,10.55
2022-10-02T21:09:36.535Z,10.54
2022-10-02T21:12:26.965Z,10.48
2022-10-02T21:15:26.337Z,10.45
2022-10-02T21:18:07.085Z,10.46
2022-10-02T21:20:55.523Z,10.59
2022-10-02T21:23:48.199Z,10.59
2022-10-02T21:26:40.524Z,10.62
2022-10-02T21:29:44.376Z,10.58
2022-10-02T21:32:22.989Z,10.72
2022-10-02T21:34:53.771Z,10.50
2022-10-02T21:37:43.991Z,10.50
2022-10-02T21:40:46.604Z,10.54
2022-10-02T21:43:51.509Z,10.58
2022-10-02T21:46:47.150Z,10.70
2022-10-02T21:49:42.927Z,10.52
2022-10-02T21:52:25.994Z,10.64
2022-10-02T21:55:32.360Z,10.48
2022-10-02T21:58:43.861Z,10.20
2022-10-02T22:01:36.344Z,10.14
2022-10-02T22:04:41.901Z,10.03
2022-10-02T22:07:12.710Z,10.18
2022-10-02T22:10:12.710Z,10.07
2022-10-02T22:12:52.583Z,10.04
2022-10-02T22:15:26.007Z,9.90
2022-10-02T22:18:01.003Z,9.80
2022-10-02T22:20:57.258Z,9.68
2022-10-02T22:23:46.198Z,9.74
2022-10-02T22:26:36.489Z,9.73
2022-10-02T22:29:24.833Z,9.86
2022-10-02T22:32:41.889Z,9.95
2022-10-02T22:35:27.623Z,9.98
2022-10-02T22:38:22.440Z,9.93
2022-10-02T22:40:58.854Z,10.05
2022-10-02T22:43:50.630Z,10.02
2022-10-02T22:46:47.665Z,10.13
2022-10-02T22:49:43.575Z,10.15
2022-10-02T22:52:30.435Z,10.17
2022-10-02T22:55:01.025Z,10.39
2022-10-02T22:57:32.001Z,10.29
2022-10-02T23:00:27.808Z,10.37
2022-10-02T23:03:02.314Z,10.38
2022-10-02T23:05:44.654Z,10.41
2022-10-02T23:08:51.153Z,10.52
2022-10-02T23:11:32.568Z,10.58
2022-10-02T23:14:13.599Z,10.45
2022-10-02T23:16:49.391Z,10.59
2022-10-02T23:19:28.177Z,10.56
2022-10-02T23:22:04.157Z,10.51
2022-10-02T23:24:43.532Z,10.52
2022-10-02T23:27:28.530Z,10.47
2022-10-02T23:30:17.528Z,10.57
2022-10-02T23:33:00.469Z,10.63
2022-10-02T23:35:31.657Z,10.52
2022-10-02T23:38:12.528Z,10.60
2022-10-02T23:41:23.760Z,10.53
2022-10-02T23:44:05.926Z,10.52
2022-10-02T23:46:49.060Z,10.64
2022-10-02T23:49:24.912Z,10.73
2022-10-02T23:52:03.108Z,10.69
2022-10-02T23:54:40.459Z,10.58
2022-10-02T23:57:33.075Z,10.75
